Time;durP1;ratioP1;P1;durP2;ratioP2;P2;SDS_P1;SDS_P2;PMS_P1;PMS_P2;Temp;Humidity;BMP_temperature;BMP_pressure;BME280_temperature;BME280_humidity;BME280_pressure;Samples;Min_cycle;Max_cycle;Signal;HPM_P1;HPM_P2
2023/01/05 00:01:43;;;;;;;1.33;0.30;;;14.90;69.70;;;;;;2558216;54;20917;-83
2023/01/05 00:04:10;;;;;;;0.80;0.40;;;14.90;69.60;;;;;;2556222;54;20937;-83
2023/01/05 00:06:38;;;;;;;0.98;0.30;;;14.90;69.70;;;;;;2297131;55;21264;-83
2023/01/05 00:09:06;;;;;;;0.88;0.30;;;15.00;69.90;;;;;;2318501;55;21372;-83
2023/01/05 00:22:56;;;;;;;0.93;0.40;;;15.00;69.80;;;;;;2298663;55;21743;-83
2023/01/05 00:25:28;;;;;;;0.45;0.22;;;14.90;69.80;;;;;;2557785;54;20957;-84
2023/01/05 00:27:57;;;;;;;1.42;0.40;;;14.90;69.70;;;;;;2557908;54;20953;-83
2023/01/05 00:30:31;;;;;;;0.65;0.43;;;14.90;69.90;;;;;;2556953;54;21006;-83
2023/01/05 00:32:57;;;;;;;1.77;0.37;;;15.00;69.90;;;;;;2532114;54;21025;-85
2023/01/05 00:35:23;;;;;;;0.95;0.40;;;14.90;69.90;;;;;;2320489;55;20973;-84
2023/01/05 00:37:50;;;;;;;1.42;0.40;;;15.00;70.10;;;;;;2301262;55;20928;-83
2023/01/05 00:40:18;;;;;;;1.15;0.40;;;14.90;70.00;;;;;;2559653;54;21070;-84
2023/01/05 00:42:44;;;;;;;0.73;0.30;;;14.90;70.10;;;;;;2560175;54;21078;-84
2023/01/05 00:45:12;;;;;;;0.65;0.30;;;14.90;70.00;;;;;;2559899;54;21503;-84
2023/01/05 00:47:39;;;;;;;0.68;0.30;;;14.90;70.00;;;;;;2558748;54;20985;-83
2023/01/05 00:50:07;;;;;;;0.82;0.30;;;14.90;70.10;;;;;;2319229;55;21870;-84
2023/01/05 00:52:34;;;;;;;1.85;0.43;;;14.90;70.10;;;;;;2558740;54;20948;-87
2023/01/05 00:55:00;;;;;;;0.65;0.30;;;14.90;70.20;;;;;;2559366;54;20953;-83
2023/01/05 00:57:27;;;;;;;0.68;0.30;;;14.80;70.10;;;;;;2559141;54;20926;-84
2023/01/05 00:59:53;;;;;;;0.85;0.35;;;14.90;70.30;;;;;;2558591;54;21009;-84
2023/01/05 01:02:19;;;;;;;1.12;0.20;;;14.90;70.30;;;;;;2318512;55;21005;-84
2023/01/05 01:04:46;;;;;;;0.45;0.30;;;14.80;70.20;;;;;;2557541;54;20958;-84
2023/01/05 01:07:12;;;;;;;0.98;0.40;;;14.90;70.40;;;;;;2530733;54;20945;-83
2023/01/05 01:09:40;;;;;;;0.80;0.40;;;14.90;70.30;;;;;;2557373;54;20953;-84
2023/01/05 01:12:06;;;;;;;0.77;0.28;;;14.80;70.20;;;;;;2557589;54;20984;-82
2023/01/05 01:14:32;;;;;;;0.68;0.20;;;14.80;70.30;;;;;;2543847;54;20949;-83
2023/01/05 01:16:59;;;;;;;0.73;0.30;;;14.80;70.30;;;;;;2546097;54;20998;-84
2023/01/05 01:19:25;;;;;;;0.43;0.20;;;14.90;70.50;;;;;;2320408;55;20933;-84
2023/01/05 01:21:51;;;;;;;0.57;0.20;;;14.80;70.40;;;;;;2319765;55;21477;-85
2023/01/05 01:24:26;;;;;;;0.80;0.30;;;14.80;70.50;;;;;;2559613;54;20934;-85
2023/01/05 01:26:53;;;;;;;0.60;0.20;;;14.80;70.40;;;;;;2541852;54;20993;-83
2023/01/05 01:29:20;;;;;;;0.45;0.20;;;14.80;70.50;;;;;;2550104;54;21018;-84
2023/01/05 01:31:46;;;;;;;0.50;0.20;;;14.80;70.50;;;;;;2542710;54;21489;-84
2023/01/05 01:34:12;;;;;;;0.10;0.10;;;14.80;70.50;;;;;;2307515;55;20937;-85
2023/01/05 01:36:39;;;;;;;0.88;0.22;;;14.80;70.50;;;;;;2545862;54;20925;-83
2023/01/05 01:39:05;;;;;;;0.62;0.28;;;14.90;70.60;;;;;;2310564;55;20982;-84
2023/01/05 01:41:31;;;;;;;0.47;0.20;;;14.90;70.60;;;;;;2320609;55;20938;-84
2023/01/05 01:43:58;;;;;;;0.32;0.10;;;14.90;70.70;;;;;;2320288;55;21037;-83
2023/01/05 01:46:24;;;;;;;0.40;0.20;;;14.90;70.70;;;;;;2560746;54;21036;-85
2023/01/05 01:49:00;;;;;;;0.62;0.20;;;14.90;70.70;;;;;;2320903;55;21018;-83
2023/01/05 01:51:32;;;;;;;0.45;0.22;;;14.90;70.80;;;;;;2320886;55;21006;-83
2023/01/05 01:54:00;;;;;;;0.60;0.20;;;14.90;70.70;;;;;;2320985;55;20937;-84
2023/01/05 01:56:29;;;;;;;0.35;0.13;;;14.90;70.70;;;;;;2560920;54;20997;-83
2023/01/05 01:58:56;;;;;;;0.43;0.20;;;14.90;70.80;;;;;;2560492;54;20993;-84
2023/01/05 02:01:22;;;;;;;0.62;0.30;;;14.90;70.80;;;;;;2321329;55;21014;-84
2023/01/05 02:03:49;;;;;;;0.45;0.20;;;14.90;70.80;;;;;;2560654;54;20918;-83
2023/01/05 02:06:15;;;;;;;0.20;0.20;;;14.90;70.70;;;;;;2319917;55;21485;-84
2023/01/05 02:08:41;;;;;;;0.22;0.15;;;14.90;70.80;;;;;;2559205;54;20981;-84
2023/01/05 02:11:40;;;;;;;0.20;0.10;;;14.90;70.70;;;;;;2319652;55;21012;-83
2023/01/05 02:15:10;;;;;;;0.68;0.25;;;14.90;70.20;;;;;;2322817;55;20927;-82
2023/01/05 02:20:51;;;;;;;0.82;0.30;;;14.90;69.70;;;;;;2319615;55;21752;-83
2023/01/05 02:23:39;;;;;;;0.40;0.20;;;15.00;69.80;;;;;;2318620;55;21042;-84
2023/01/05 02:26:32;;;;;;;0.37;0.13;;;15.00;70.50;;;;;;2559657;54;20966;-85
2023/01/05 02:30:45;;;;;;;1.45;0.30;;;14.90;70.10;;;;;;2559176;54;20985;-85
2023/01/05 02:33:40;;;;;;;0.20;0.15;;;14.90;69.70;;;;;;2319361;55;20978;-85
2023/01/05 02:38:04;;;;;;;0.43;0.10;;;14.90;70.20;;;;;;2323379;55;21481;-85
2023/01/05 02:40:33;;;;;;;;;;;14.90;69.80;;;;;;2324763;55;20949;-85
2023/01/05 02:42:59;;;;;;;0.85;0.20;;;14.90;69.90;;;;;;2320690;55;20211;-85
2023/01/05 02:45:25;;;;;;;0.95;0.40;;;14.90;70.80;;;;;;2321452;55;21021;-86
2023/01/05 02:47:52;;;;;;;0.90;0.10;;;14.90;70.80;;;;;;2561049;54;20926;-84
2023/01/05 02:51:03;;;;;;;0.60;0.25;;;14.90;70.90;;;;;;2321230;55;20977;-85
2023/01/05 02:53:31;;;;;;;0.73;0.28;;;14.90;70.00;;;;;;2561274;54;20954;-85
2023/01/05 02:56:08;;;;;;;0.60;0.20;;;14.90;71.00;;;;;;2320972;55;20970;-86
2023/01/05 02:58:38;;;;;;;0.10;0.10;;;14.90;70.90;;;;;;2321228;55;20981;-85
2023/01/05 03:01:30;;;;;;;0.65;0.20;;;14.90;70.90;;;;;;2560372;54;20976;-85
2023/01/05 03:04:12;;;;;;;0.10;0.10;;;14.90;70.40;;;;;;2321315;55;20969;-85
2023/01/05 03:06:47;;;;;;;0.68;0.15;;;14.90;70.90;;;;;;2562512;54;21437;-84
2023/01/05 03:09:18;;;;;;;0.55;0.13;;;14.90;71.00;;;;;;2320977;55;20981;-85
2023/01/05 03:14:49;;;;;;;0.35;0.15;;;14.90;71.00;;;;;;2561443;54;21789;-85
2023/01/05 03:17:21;;;;;;;0.22;0.10;;;14.90;70.70;;;;;;2561383;54;20949;-85
2023/01/05 03:19:47;;;;;;;0.50;0.20;;;14.90;71.00;;;;;;2321068;55;20944;-85
2023/01/05 03:36:17;;;;;;;0.98;0.28;;;15.00;71.00;;;;;;2560981;54;20950;-85
2023/01/05 03:38:44;;;;;;;0.20;0.10;;;15.00;71.10;;;;;;2560830;54;21009;-85
2023/01/05 03:41:11;;;;;;;0.30;0.17;;;15.00;71.00;;;;;;2320513;55;21006;-82
2023/01/05 03:43:37;;;;;;;0.20;0.08;;;15.00;71.10;;;;;;2560823;54;21033;-85
2023/01/05 03:46:13;;;;;;;0.37;0.10;;;15.00;71.00;;;;;;2319959;55;21025;-84
2023/01/05 03:48:39;;;;;;;0.20;0.10;;;15.00;70.80;;;;;;2321107;55;20966;-84
2023/01/05 03:51:07;;;;;;;0.20;0.10;;;15.00;70.80;;;;;;2560892;54;20973;-83
2023/01/05 03:53:33;;;;;;;0.62;0.20;;;15.00;70.90;;;;;;2561281;54;21418;-83
2023/01/05 03:55:59;;;;;;;0.10;0.10;;;15.00;70.90;;;;;;2321293;55;21470;-86
2023/01/05 03:58:25;;;;;;;0.20;0.10;;;15.00;70.90;;;;;;2321241;55;20933;-85
2023/01/05 04:00:52;;;;;;;0.17;0.10;;;15.00;71.00;;;;;;2320614;55;20949;-85
2023/01/05 04:03:18;;;;;;;0.10;0.08;;;14.90;70.80;;;;;;2322468;55;21016;-85
2023/01/05 04:05:44;;;;;;;0.10;0.10;;;15.00;70.90;;;;;;2535229;54;21033;-82
2023/01/05 04:08:10;;;;;;;0.10;0.10;;;15.00;71.00;;;;;;2320717;55;21408;-85
2023/01/05 04:10:37;;;;;;;0.30;0.10;;;15.00;70.90;;;;;;2561129;54;20934;-84
2023/01/05 04:13:04;;;;;;;0.10;0.10;;;15.00;70.90;;;;;;2301570;55;20914;-85
2023/01/05 04:15:31;;;;;;;0.65;0.13;;;15.00;70.90;;;;;;2321592;55;20977;-86
2023/01/05 04:17:57;;;;;;;0.50;0.10;;;15.00;70.80;;;;;;2321015;55;20941;-84
2023/01/05 04:20:23;;;;;;;0.20;0.10;;;15.00;70.90;;;;;;2561021;54;22011;-85
2023/01/05 04:22:49;;;;;;;0.13;0.10;;;15.00;70.80;;;;;;2321098;55;21818;-85
2023/01/05 04:25:16;;;;;;;0.28;0.10;;;15.00;70.80;;;;;;2321036;55;20988;-85
2023/01/05 04:27:42;;;;;;;0.45;0.20;;;15.00;70.90;;;;;;2321598;55;20953;-84
2023/01/05 04:30:09;;;;;;;0.10;0.10;;;15.00;70.90;;;;;;2561613;54;20953;-83
2023/01/05 04:32:36;;;;;;;0.32;0.10;;;15.00;70.90;;;;;;2561994;54;20937;-83
2023/01/05 04:35:02;;;;;;;0.30;0.15;;;15.00;70.90;;;;;;2560940;54;20941;-85
2023/01/05 04:37:34;;;;;;;0.98;0.10;;;15.00;70.90;;;;;;2562275;54;20922;-83
2023/01/05 04:40:00;;;;;;;0.60;0.20;;;15.00;70.80;;;;;;2321356;55;20929;-83
2023/01/05 04:42:27;;;;;;;0.20;0.10;;;15.10;71.00;;;;;;2562171;54;20945;-82
2023/01/05 04:44:53;;;;;;;0.32;0.10;;;15.10;71.00;;;;;;2561420;54;20926;-82
2023/01/05 04:47:20;;;;;;;0.47;0.20;;;15.10;71.00;;;;;;2561505;54;20942;-84
2023/01/05 04:49:47;;;;;;;0.13;0.10;;;15.10;70.90;;;;;;2321542;55;21442;-85
2023/01/05 04:52:13;;;;;;;0.32;0.17;;;15.00;70.80;;;;;;2321742;55;21516;-85
2023/01/05 04:54:39;;;;;;;0.05;0.00;;;15.00;70.80;;;;;;2321629;55;20938;-85
2023/01/05 04:57:07;;;;;;;0.25;0.17;;;15.10;70.90;;;;;;2562424;54;21781;-85
2023/01/05 04:59:34;;;;;;;0.68;0.20;;;15.10;70.90;;;;;;2562564;54;20978;-85
2023/01/05 05:02:01;;;;;;;0.52;0.13;;;15.10;70.90;;;;;;2562019;54;20886;-83
2023/01/05 05:04:27;;;;;;;0.10;0.10;;;15.10;70.90;;;;;;2562569;54;21012;-83
2023/01/05 05:06:53;;;;;;;0.30;0.10;;;15.10;70.90;;;;;;2562879;54;20933;-83
2023/01/05 05:09:20;;;;;;;0.10;0.10;;;15.10;70.90;;;;;;2322905;55;21003;-83
2023/01/05 05:11:46;;;;;;;0.25;0.10;;;15.10;70.90;;;;;;2562118;54;20967;-83
2023/01/05 05:14:12;;;;;;;0.20;0.10;;;15.00;70.80;;;;;;2321450;55;20953;-83
2023/01/05 05:16:39;;;;;;;0.17;0.10;;;15.10;70.90;;;;;;2322430;55;21897;-84
2023/01/05 05:19:05;;;;;;;0.17;0.10;;;15.10;70.80;;;;;;2555913;54;20951;-85
2023/01/05 05:21:31;;;;;;;0.80;0.20;;;15.00;70.70;;;;;;2303152;55;20929;-85
2023/01/05 05:23:57;;;;;;;0.82;0.20;;;15.00;70.80;;;;;;2561271;54;21518;-85
2023/01/05 05:26:24;;;;;;;0.30;0.10;;;15.00;70.80;;;;;;2561418;54;21013;-86
2023/01/05 05:28:50;;;;;;;0.20;0.10;;;15.00;70.80;;;;;;2320793;55;20956;-86
2023/01/05 05:31:17;;;;;;;0.62;0.20;;;15.10;70.90;;;;;;2561707;54;21005;-85
2023/01/05 05:33:43;;;;;;;0.17;0.10;;;15.00;70.80;;;;;;2321616;55;20989;-85
2023/01/05 05:36:10;;;;;;;0.28;0.10;;;15.00;70.80;;;;;;2561494;54;20918;-84
2023/01/05 05:38:36;;;;;;;0.17;0.10;;;15.00;70.80;;;;;;2321919;55;20961;-82
2023/01/05 05:41:03;;;;;;;0.25;0.10;;;15.00;70.90;;;;;;2561099;54;20934;-84
2023/01/05 05:43:29;;;;;;;0.25;0.10;;;15.00;70.90;;;;;;2561463;54;20945;-85
2023/01/05 05:45:55;;;;;;;0.00;0.00;;;15.00;71.00;;;;;;2561704;54;21846;-86
2023/01/05 05:48:22;;;;;;;2.20;0.20;;;15.00;71.00;;;;;;2321210;55;20970;-86
2023/01/05 05:50:48;;;;;;;0.47;0.10;;;15.00;71.00;;;;;;2561170;54;20941;-85
2023/01/05 05:53:14;;;;;;;0.82;0.20;;;15.00;71.10;;;;;;2554186;54;20984;-85
2023/01/05 05:55:40;;;;;;;0.62;0.30;;;15.00;71.10;;;;;;2541264;54;21756;-83
2023/01/05 05:58:07;;;;;;;0.55;0.30;;;15.10;71.20;;;;;;2321648;55;21045;-84
2023/01/05 06:00:34;;;;;;;1.30;0.50;;;15.00;71.00;;;;;;2320847;55;20974;-83
2023/01/05 06:03:00;;;;;;;0.93;0.32;;;15.00;71.00;;;;;;2321228;55;20974;-83
2023/01/05 06:05:27;;;;;;;0.45;0.20;;;15.00;71.00;;;;;;2321190;55;20921;-83
2023/01/05 06:07:53;;;;;;;0.52;0.13;;;15.00;71.00;;;;;;2560697;54;20918;-83
2023/01/05 06:10:19;;;;;;;1.00;0.50;;;15.00;71.00;;;;;;2561588;54;21053;-83
2023/01/05 06:12:46;;;;;;;0.50;0.30;;;15.00;71.00;;;;;;2561144;54;20929;-85
2023/01/05 06:15:12;;;;;;;0.28;0.15;;;15.00;71.00;;;;;;2321074;55;20946;-84
2023/01/05 06:17:39;;;;;;;0.15;0.15;;;15.00;71.00;;;;;;2561990;54;20926;-84
2023/01/05 06:20:08;;;;;;;0.82;0.30;;;15.00;71.10;;;;;;2561028;54;21999;-84
2023/01/05 06:22:34;;;;;;;0.52;0.30;;;15.00;71.00;;;;;;2321815;55;20974;-83
2023/01/05 06:25:00;;;;;;;0.40;0.20;;;15.00;71.10;;;;;;2320978;55;21994;-83
2023/01/05 06:27:26;;;;;;;0.65;0.30;;;15.00;71.10;;;;;;2320991;55;21061;-83
2023/01/05 06:29:53;;;;;;;0.93;0.40;;;15.00;71.10;;;;;;2560177;54;20957;-83
2023/01/05 06:32:19;;;;;;;0.77;0.30;;;15.00;71.10;;;;;;2321641;55;20938;-86
2023/01/05 06:34:46;;;;;;;1.55;0.55;;;15.00;71.10;;;;;;2560901;54;20941;-85
2023/01/05 06:37:12;;;;;;;4.80;2.10;;;15.00;71.10;;;;;;2321033;55;21045;-85
2023/01/05 06:39:38;;;;;;;3.33;1.40;;;15.00;71.10;;;;;;2321438;55;21001;-86
2023/01/05 06:42:05;;;;;;;2.22;0.80;;;15.00;71.10;;;;;;2320873;55;20956;-85
2023/01/05 06:44:32;;;;;;;1.42;0.52;;;15.00;71.10;;;;;;2561377;54;20918;-85
2023/01/05 06:46:59;;;;;;;1.17;0.40;;;15.00;71.10;;;;;;2561104;54;20894;-84
2023/01/05 06:49:25;;;;;;;1.17;0.35;;;15.00;71.20;;;;;;2560440;54;20934;-85
2023/01/05 06:51:51;;;;;;;0.82;0.30;;;15.00;71.20;;;;;;2561584;54;20985;-85
2023/01/05 06:54:17;;;;;;;0.70;0.30;;;15.00;71.20;;;;;;2320781;55;21936;-84
2023/01/05 06:56:44;;;;;;;1.35;0.40;;;15.00;71.20;;;;;;2321476;55;21065;-84
2023/01/05 06:59:11;;;;;;;0.52;0.25;;;15.00;71.20;;;;;;2561139;54;21530;-83
2023/01/05 07:01:38;;;;;;;0.93;0.30;;;15.00;71.20;;;;;;2561417;54;20985;-83
2023/01/05 07:04:04;;;;;;;1.08;0.40;;;15.00;71.30;;;;;;2560351;54;21013;-83
2023/01/05 07:06:31;;;;;;;1.12;0.40;;;15.00;71.20;;;;;;2321036;55;20949;-86
2023/01/05 07:08:57;;;;;;;0.52;0.20;;;15.00;71.20;;;;;;2321105;55;21018;-83
2023/01/05 07:11:23;;;;;;;0.35;0.20;;;15.00;71.20;;;;;;2302273;55;20969;-84
2023/01/05 07:13:50;;;;;;;0.20;0.20;;;15.00;71.20;;;;;;2321209;55;21797;-84
2023/01/05 07:16:16;;;;;;;0.57;0.30;;;15.00;71.20;;;;;;2321070;55;20950;-83
2023/01/05 07:18:43;;;;;;;2.20;0.55;;;15.00;71.20;;;;;;2561295;54;21707;-83
2023/01/05 07:21:09;;;;;;;0.80;0.37;;;15.00;71.20;;;;;;2560708;54;21395;-82
2023/01/05 07:23:36;;;;;;;0.35;0.28;;;15.00;71.10;;;;;;2561337;54;21084;-82
2023/01/05 07:26:07;;;;;;;0.30;0.10;;;15.00;71.10;;;;;;2561316;54;20969;-85
2023/01/05 07:28:34;;;;;;;1.00;0.30;;;15.00;71.00;;;;;;2561649;54;20965;-84
2023/01/05 07:31:00;;;;;;;1.30;0.30;;;15.00;71.20;;;;;;2560803;54;20973;-85
2023/01/05 07:33:27;;;;;;;0.88;0.35;;;15.00;71.20;;;;;;2560948;54;21016;-86
2023/01/05 07:35:53;;;;;;;0.70;0.30;;;15.00;71.20;;;;;;2320691;55;20901;-85
2023/01/05 07:38:19;;;;;;;0.62;0.30;;;15.00;71.20;;;;;;2561457;54;21498;-84
2023/01/05 07:40:46;;;;;;;0.75;0.35;;;15.00;71.30;;;;;;2321275;55;21814;-85
2023/01/05 07:43:12;;;;;;;0.85;0.30;;;15.00;72.10;;;;;;2559730;54;20922;-85
2023/01/05 07:45:38;;;;;;;0.77;0.30;;;15.00;71.40;;;;;;2561640;54;20989;-84
2023/01/05 07:48:04;;;;;;;0.45;0.22;;;15.00;71.50;;;;;;2321322;55;20933;-85
2023/01/05 07:50:31;;;;;;;1.08;0.30;;;15.00;71.50;;;;;;2560874;54;20925;-85
2023/01/05 07:52:58;;;;;;;0.57;0.28;;;15.00;71.60;;;;;;2560863;54;20984;-85
2023/01/05 07:55:24;;;;;;;0.88;0.32;;;15.00;71.60;;;;;;2561675;54;20985;-85
2023/01/05 07:57:51;;;;;;;0.85;0.30;;;15.00;71.60;;;;;;2561548;54;20905;-85
2023/01/05 08:00:17;;;;;;;0.25;0.20;;;15.00;71.70;;;;;;2560728;54;20902;-85
2023/01/05 08:02:44;;;;;;;0.88;0.30;;;15.00;71.70;;;;;;2322623;55;20925;-83
2023/01/05 08:05:11;;;;;;;0.57;0.32;;;15.00;71.70;;;;;;2321830;55;20941;-83
2023/01/05 08:07:37;;;;;;;0.40;0.20;;;15.00;71.70;;;;;;2562251;54;21237;-84
2023/01/05 08:15:33;;;;;;;1.12;0.37;;;15.00;71.70;;;;;;2563974;54;20930;-87
2023/01/05 08:18:00;;;;;;;1.02;0.30;;;15.00;71.70;;;;;;2564373;54;20941;-87
2023/01/05 08:20:26;;;;;;;0.82;0.30;;;15.00;71.80;;;;;;2322168;55;21049;-84
2023/01/05 08:22:52;;;;;;;0.98;0.35;;;15.00;71.80;;;;;;2320321;55;21093;-83
2023/01/05 08:25:19;;;;;;;0.40;0.22;;;15.00;71.90;;;;;;2320666;55;20974;-83
2023/01/05 08:27:45;;;;;;;0.37;0.20;;;15.00;71.90;;;;;;2320727;55;20944;-84
2023/01/05 08:30:12;;;;;;;0.88;0.35;;;15.00;71.90;;;;;;2560263;54;20925;-85
2023/01/05 08:32:39;;;;;;;1.37;0.47;;;15.20;72.00;;;;;;2559473;54;21288;-83
2023/01/05 08:35:05;;;;;;;1.42;0.50;;;15.10;72.00;;;;;;2319419;55;20985;-83
2023/01/05 08:37:32;;;;;;;0.80;0.40;;;15.10;72.00;;;;;;2559547;54;20989;-85
2023/01/05 08:39:58;;;;;;;1.98;0.43;;;15.10;72.00;;;;;;2559107;54;21018;-84
2023/01/05 08:42:25;;;;;;;1.02;0.47;;;15.10;72.10;;;;;;2320375;55;21315;-85
2023/01/05 08:44:51;;;;;;;0.55;0.30;;;15.10;72.10;;;;;;2560146;54;21025;-84
2023/01/05 08:47:18;;;;;;;1.12;0.45;;;15.10;72.10;;;;;;2560162;54;20978;-84
2023/01/05 08:49:44;;;;;;;1.15;0.35;;;15.20;72.20;;;;;;2321987;55;20961;-82
2023/01/05 08:52:10;;;;;;;1.92;0.47;;;15.20;72.20;;;;;;2320641;55;21053;-85
2023/01/05 08:54:37;;;;;;;1.67;0.60;;;15.20;72.20;;;;;;2561046;54;20957;-83
2023/01/05 08:57:03;;;;;;;1.52;0.50;;;15.20;72.20;;;;;;2560944;54;21186;-82
2023/01/05 08:59:30;;;;;;;1.67;0.60;;;15.30;72.30;;;;;;2319984;55;20957;-83
2023/01/05 09:01:57;;;;;;;2.37;0.60;;;15.30;72.20;;;;;;2560366;54;20953;-84
2023/01/05 09:04:23;;;;;;;1.40;0.47;;;15.30;72.20;;;;;;2560427;54;20975;-87
2023/01/05 09:06:50;;;;;;;1.25;0.50;;;15.30;72.20;;;;;;2559814;54;20968;-85
2023/01/05 09:09:16;;;;;;;0.95;0.45;;;15.30;72.20;;;;;;2561138;54;20997;-85
2023/01/05 09:11:43;;;;;;;1.10;0.40;;;15.30;72.30;;;;;;2560826;54;20957;-84
2023/01/05 09:14:14;;;;;;;1.33;0.50;;;15.40;72.40;;;;;;2320717;55;21367;-84
2023/01/05 09:16:41;;;;;;;1.42;0.62;;;15.40;72.20;;;;;;2321486;55;21041;-84
2023/01/05 09:19:30;;;;;;;1.60;0.43;;;15.40;72.20;;;;;;2321511;55;20973;-84
2023/01/05 09:21:57;;;;;;;1.30;0.40;;;15.40;72.20;;;;;;2560631;54;20993;-83
2023/01/05 09:24:24;;;;;;;1.35;0.50;;;15.40;72.10;;;;;;2560829;54;21038;-83
2023/01/05 09:26:50;;;;;;;0.77;0.40;;;15.50;72.20;;;;;;2561542;54;20949;-84
2023/01/05 09:29:17;;;;;;;2.45;0.57;;;15.50;72.30;;;;;;2320075;55;20984;-86
2023/01/05 09:31:45;;;;;;;1.55;0.50;;;15.50;72.30;;;;;;2320255;55;20965;-82
2023/01/05 09:34:11;;;;;;;1.75;0.47;;;15.60;72.30;;;;;;2560926;54;21033;-84
2023/01/05 09:36:37;;;;;;;1.80;0.40;;;15.60;72.20;;;;;;2562225;54;21057;-83
2023/01/05 09:39:05;;;;;;;2.10;0.50;;;15.60;72.20;;;;;;2559496;54;20949;-85
2023/01/05 09:41:47;;;;;;;1.80;0.77;;;15.60;72.10;;;;;;2559914;54;21022;-83
2023/01/05 09:45:15;;;;;;;3.05;0.52;;;15.70;71.50;;;;;;2559992;54;21064;-84
2023/01/05 09:47:43;;;;;;;2.15;0.60;;;15.70;71.00;;;;;;2534350;54;22033;-84
2023/01/05 09:50:22;;;;;;;3.83;0.62;;;15.80;72.30;;;;;;2561537;54;20990;-84
2023/01/05 09:52:49;;;;;;;2.55;0.60;;;15.80;71.90;;;;;;2560719;54;21460;-83
2023/01/05 09:55:17;;;;;;;4.55;1.12;;;15.80;72.30;;;;;;2321520;55;21536;-85
2023/01/05 09:59:43;;;;;;;3.12;0.60;;;15.90;72.20;;;;;;2323640;55;21702;-82
2023/01/05 10:03:14;;;;;;;2.60;0.60;;;15.90;70.90;;;;;;2565021;54;20973;-85
2023/01/05 10:05:48;;;;;;;4.60;0.65;;;16.00;71.00;;;;;;2563101;54;20973;-85
2023/01/05 10:08:38;;;;;;;3.33;0.80;;;16.00;72.10;;;;;;2562885;54;20997;-82
2023/01/05 10:14:05;;;;;;;4.35;0.90;;;16.10;72.10;;;;;;2322273;55;21051;-85
2023/01/05 10:16:32;;;;;;;3.62;0.80;;;16.20;72.10;;;;;;2560619;54;21005;-82
2023/01/05 10:19:00;;;;;;;4.47;0.90;;;16.20;72.10;;;;;;2560360;54;21013;-82
2023/01/05 10:21:41;;;;;;;3.78;0.90;;;16.20;71.90;;;;;;2559356;54;21021;-85
2023/01/05 10:27:29;;;;;;;12.30;1.20;;;16.30;71.60;;;;;;2560234;54;20954;-83
2023/01/05 10:30:37;;;;;;;1.90;0.52;;;16.40;70.50;;;;;;2560875;54;20988;-84
2023/01/05 10:33:14;;;;;;;3.70;0.62;;;16.50;70.50;;;;;;2319960;55;21076;-83
2023/01/05 10:36:04;;;;;;;4.28;0.62;;;16.50;71.80;;;;;;2560492;54;21407;-83
2023/01/05 10:38:56;;;;;;;2.83;0.53;;;16.60;71.20;;;;;;2561631;54;21545;-84
2023/01/05 10:42:53;;;;;;;1.98;0.68;;;16.60;70.70;;;;;;2320997;55;21138;-85
2023/01/05 10:45:20;;;;;;;2.28;0.80;;;16.60;69.90;;;;;;2560567;54;21088;-83
2023/01/05 10:47:47;;;;;;;5.05;0.90;;;16.70;71.50;;;;;;2562267;54;21044;-84
2023/01/05 10:50:45;;;;;;;2.55;0.70;;;16.70;71.20;;;;;;2562682;54;21005;-82
2023/01/05 10:53:20;;;;;;;4.50;0.70;;;16.70;70.10;;;;;;2560212;54;21017;-84
2023/01/05 10:56:47;;;;;;;4.15;1.35;;;16.80;70.30;;;;;;2321255;55;21045;-84
2023/01/05 10:59:14;;;;;;;3.00;0.60;;;16.80;69.10;;;;;;2560510;54;22060;-81
2023/01/05 11:01:46;;;;;;;5.35;1.00;;;16.80;70.90;;;;;;2561254;54;20989;-84
2023/01/05 11:04:15;;;;;;;3.30;1.00;;;16.80;70.30;;;;;;2560183;54;20977;-82
2023/01/05 11:07:02;;;;;;;3.85;0.70;;;16.90;70.60;;;;;;2560222;54;21021;-82
2023/01/05 11:09:29;;;;;;;4.47;0.75;;;16.90;69.80;;;;;;2560113;54;20937;-83
2023/01/05 11:11:56;;;;;;;4.60;1.05;;;16.90;70.40;;;;;;2560375;54;20996;-82
2023/01/05 11:14:22;;;;;;;5.10;0.82;;;16.90;70.10;;;;;;2560133;54;20943;-83
2023/01/05 11:16:52;;;;;;;2.95;0.68;;;16.90;70.10;;;;;;2562766;54;21021;-83
2023/01/05 11:19:27;;;;;;;3.75;0.75;;;16.90;70.00;;;;;;2562723;54;20933;-82
2023/01/05 11:21:54;;;;;;;3.33;0.70;;;17.00;69.80;;;;;;2560697;54;21028;-83
2023/01/05 11:24:32;;;;;;;3.80;0.77;;;17.00;70.10;;;;;;2559625;54;20952;-81
2023/01/05 11:27:02;;;;;;;2.80;1.15;;;17.00;69.50;;;;;;2560045;54;20965;-82
2023/01/05 11:29:29;;;;;;;3.87;0.90;;;17.00;69.50;;;;;;2559835;54;20997;-83
2023/01/05 11:32:00;;;;;;;3.60;1.00;;;17.00;69.80;;;;;;2322175;55;20929;-82
2023/01/05 11:34:44;;;;;;;4.40;1.17;;;17.00;69.60;;;;;;2320569;55;21060;-83
2023/01/05 11:37:31;;;;;;;4.22;1.20;;;17.00;68.80;;;;;;2320714;55;20949;-83
2023/01/05 11:39:59;;;;;;;3.80;1.25;;;17.10;68.60;;;;;;2560096;54;21141;-81
2023/01/05 11:42:31;;;;;;;2.42;0.77;;;17.10;70.00;;;;;;2560575;54;20966;-84
2023/01/05 11:45:02;;;;;;;3.37;1.10;;;17.10;68.80;;;;;;2560247;54;21052;-82
2023/01/05 11:47:37;;;;;;;2.73;1.00;;;17.10;69.60;;;;;;2282267;54;3164995;-85
2023/01/05 11:50:30;;;;;;;3.53;1.37;;;17.10;69.20;;;;;;2320170;55;21325;-84
2023/01/05 11:52:57;;;;;;;3.95;1.30;;;17.20;69.00;;;;;;2560318;54;21044;-84
2023/01/05 11:55:42;;;;;;;5.32;1.67;;;17.10;69.60;;;;;;2560174;54;21877;-85
2023/01/05 11:58:22;;;;;;;3.50;1.30;;;17.20;68.40;;;;;;2559673;54;21021;-81
2023/01/05 12:04:47;;;;;;;4.12;1.20;;;17.20;69.30;;;;;;2560406;54;20997;-85
2023/01/05 12:07:29;;;;;;;4.07;1.20;;;17.30;68.70;;;;;;2559741;54;20982;-84
2023/01/05 12:10:01;;;;;;;3.90;1.35;;;17.30;69.20;;;;;;2321945;55;21458;-85
2023/01/05 12:14:15;;;;;;;6.32;2.65;;;17.30;69.60;;;;;;2560359;54;21057;-84
2023/01/05 12:16:56;;;;;;;;;;;17.30;68.40;;;;;;2564160;54;21069;-85
2023/01/05 12:20:48;;;;;;;2.75;0.90;;;17.40;68.70;;;;;;2560421;54;20099;-84
2023/01/05 12:23:40;;;;;;;2.70;0.88;;;17.40;68.50;;;;;;2320265;55;20953;-85
2023/01/05 12:28:17;;;;;;;2.97;1.10;;;17.40;68.90;;;;;;2532165;54;20952;-84
2023/01/05 12:32:44;;;;;;;5.03;1.45;;;17.40;68.40;;;;;;2560234;54;20944;-86
2023/01/05 12:36:03;;;;;;;1.75;0.55;;;17.50;69.00;;;;;;2560613;54;20961;-82
2023/01/05 12:40:11;;;;;;;2.03;0.77;;;17.50;69.90;;;;;;2559922;54;21676;-86
2023/01/05 12:42:59;;;;;;;1.58;0.57;;;17.60;68.80;;;;;;2560643;54;20985;-84
2023/01/05 12:45:52;;;;;;;2.33;0.68;;;17.50;68.90;;;;;;2560022;54;20958;-83
2023/01/05 12:49:09;;;;;;;2.90;0.70;;;17.60;68.80;;;;;;2320708;55;21475;-84
2023/01/05 12:51:45;;;;;;;2.65;0.80;;;17.60;68.50;;;;;;2320231;55;20950;-84
2023/01/05 12:54:30;;;;;;;2.42;0.60;;;17.60;69.50;;;;;;2558671;54;21529;-85
2023/01/05 12:56:59;;;;;;;1.65;0.62;;;17.60;69.50;;;;;;2318849;55;20973;-84
2023/01/05 13:00:19;;;;;;;3.28;0.70;;;17.60;69.70;;;;;;2559560;54;20956;-85
2023/01/05 13:03:00;;;;;;;2.35;0.80;;;17.60;69.10;;;;;;2560518;54;20977;-84
2023/01/05 13:05:38;;;;;;;2.95;0.88;;;17.60;69.00;;;;;;2319943;55;21383;-82
2023/01/05 13:08:34;;;;;;;4.28;0.93;;;17.60;68.90;;;;;;2560684;54;20981;-85
2023/01/05 13:11:15;;;;;;;3.20;0.88;;;17.60;69.10;;;;;;2321384;55;21044;-87
2023/01/05 13:13:56;;;;;;;3.97;0.90;;;17.60;68.50;;;;;;2321687;55;21017;-86
2023/01/05 13:17:45;;;;;;;2.50;0.70;;;17.60;68.90;;;;;;2560814;54;20905;-85
2023/01/05 13:20:34;;;;;;;2.40;0.77;;;17.60;69.20;;;;;;2560729;54;21052;-85
2023/01/05 13:23:04;;;;;;;3.03;0.80;;;17.70;69.60;;;;;;2560393;54;21049;-85
2023/01/05 13:25:34;;;;;;;3.00;1.02;;;17.70;69.30;;;;;;2561013;54;20938;-85
2023/01/05 13:28:01;;;;;;;2.72;0.70;;;17.70;69.30;;;;;;2561516;54;21256;-86
2023/01/05 13:30:39;;;;;;;2.65;0.88;;;17.70;69.50;;;;;;2321567;55;20902;-84
2023/01/05 13:33:34;;;;;;;2.70;0.80;;;17.70;68.60;;;;;;2560601;54;20961;-84
2023/01/05 13:36:38;;;;;;;2.00;0.55;;;17.70;68.40;;;;;;2561129;54;20957;-85
2023/01/05 13:43:54;;;;;;;2.08;0.75;;;17.70;67.90;;;;;;2561616;54;20925;-84
2023/01/05 13:47:59;;;;;;;2.22;0.80;;;17.80;68.10;;;;;;2321583;55;20961;-83
2023/01/05 13:50:35;;;;;;;2.92;1.02;;;17.80;68.40;;;;;;2561837;54;21957;-84
2023/01/05 13:53:18;;;;;;;3.42;1.10;;;17.80;69.40;;;;;;2562204;54;21029;-85
2023/01/05 13:56:04;;;;;;;3.15;1.00;;;17.90;68.80;;;;;;2302637;55;21009;-85
2023/01/05 13:58:42;;;;;;;4.07;1.20;;;17.80;69.50;;;;;;2320072;55;20969;-84
2023/01/05 14:01:14;;;;;;;2.62;1.10;;;17.80;69.10;;;;;;2560227;54;21132;-85
2023/01/05 14:03:48;;;;;;;3.20;0.90;;;17.80;69.40;;;;;;2301823;55;20972;-85
2023/01/05 14:06:21;;;;;;;2.35;0.90;;;17.80;69.10;;;;;;2561824;54;21056;-83
2023/01/05 14:08:57;;;;;;;;;;;17.80;69.40;;;;;;2324569;55;20965;-84
2023/01/05 14:11:25;;;;;;;2.70;0.90;;;17.80;68.20;;;;;;2560992;54;20084;-83
2023/01/05 14:13:59;;;;;;;2.62;0.90;;;17.80;69.50;;;;;;2560962;54;21802;-85
2023/01/05 14:17:44;;;;;;;2.35;0.95;;;17.80;69.10;;;;;;2560788;54;21056;-83
2023/01/05 14:20:35;;;;;;;4.40;1.65;;;17.90;68.20;;;;;;2561236;54;20973;-85
2023/01/05 14:23:52;;;;;;;3.55;1.67;;;17.90;68.50;;;;;;2561664;54;21009;-84